Time;durP1;ratioP1;P1;durP2;ratioP2;P2;SDS_P1;SDS_P2;PMS_P1;PMS_P2;Temp;Humidity;BMP_temperature;BMP_pressure;BME280_temperature;BME280_humidity;BME280_pressure;Samples;Min_cycle;Max_cycle;Signal;HPM_P1;HPM_P2
2020/12/09 00:01:52;;;;;;;2.53;2.03;;;22.60;33.00;;;;;;5033630;28;20079;-48
2020/12/09 00:04:18;;;;;;;2.40;1.83;;;22.60;33.00;;;;;;5030927;28;20433;-49
2020/12/09 00:06:45;;;;;;;2.42;1.77;;;22.60;33.00;;;;;;5033243;28;20017;-49
2020/12/09 00:09:14;;;;;;;2.70;1.70;;;22.60;33.00;;;;;;5014931;28;20349;-46
2020/12/09 00:11:41;;;;;;;2.13;1.83;;;22.60;33.00;;;;;;5033337;28;20116;-45
2020/12/09 00:14:08;;;;;;;2.35;1.65;;;22.50;33.00;;;;;;5032282;28;20025;-44
2020/12/09 00:16:34;;;;;;;2.90;1.90;;;22.50;33.00;;;;;;5033176;28;20468;-47
2020/12/09 00:19:03;;;;;;;2.10;1.40;;;22.50;33.00;;;;;;5030771;28;20033;-49
2020/12/09 00:21:30;;;;;;;3.60;2.20;;;22.50;33.00;;;;;;5032765;28;20025;-48
2020/12/09 00:23:56;;;;;;;2.25;1.75;;;22.50;33.00;;;;;;5032465;28;20057;-46
2020/12/09 00:26:24;;;;;;;2.88;1.60;;;22.50;33.00;;;;;;5032090;28;20048;-45
2020/12/09 00:28:51;;;;;;;2.58;1.67;;;22.50;33.10;;;;;;5031408;28;20119;-46
2020/12/09 00:31:20;;;;;;;2.80;1.60;;;22.50;33.10;;;;;;5032339;28;20037;-45
2020/12/09 00:33:47;;;;;;;2.25;1.70;;;22.50;33.10;;;;;;5032477;28;20033;-46
2020/12/09 00:36:14;;;;;;;3.55;1.70;;;22.40;33.10;;;;;;5032050;28;20027;-47
2020/12/09 00:38:40;;;;;;;1.75;1.50;;;22.40;33.10;;;;;;5031958;28;20044;-44
2020/12/09 00:41:05;;;;;;;2.17;1.75;;;22.40;33.10;;;;;;5032312;28;20033;-47
2020/12/09 00:43:31;;;;;;;1.92;1.52;;;22.40;33.10;;;;;;5032330;28;20095;-46
2020/12/09 00:45:57;;;;;;;2.17;1.50;;;22.40;33.10;;;;;;5015001;28;20034;-44
2020/12/09 00:48:23;;;;;;;2.72;1.70;;;22.40;33.10;;;;;;5014792;28;20053;-45
2020/12/09 00:50:49;;;;;;;1.75;1.58;;;22.40;33.10;;;;;;5013316;28;20111;-45
2020/12/09 00:53:15;;;;;;;1.70;1.40;;;22.40;33.10;;;;;;5032174;28;20100;-45
2020/12/09 00:55:41;;;;;;;3.13;1.70;;;22.40;33.10;;;;;;5014663;28;20116;-45
2020/12/09 00:58:07;;;;;;;2.50;1.60;;;22.40;33.10;;;;;;5014775;28;20021;-47
2020/12/09 01:00:33;;;;;;;2.38;1.65;;;22.30;33.00;;;;;;5014340;28;20033;-44
2020/12/09 01:03:15;;;;;;;1.90;1.48;;;22.30;33.10;;;;;;5013646;28;20129;-45
2020/12/09 01:05:41;;;;;;;1.83;1.50;;;22.30;33.00;;;;;;5031412;28;20128;-45
2020/12/09 01:08:07;;;;;;;1.65;1.50;;;22.30;33.00;;;;;;5032248;28;20029;-45
2020/12/09 01:10:33;;;;;;;1.90;1.50;;;22.30;33.00;;;;;;5032006;28;20036;-46
2020/12/09 01:12:58;;;;;;;2.55;1.63;;;22.30;33.00;;;;;;5032091;28;20125;-44
2020/12/09 01:15:24;;;;;;;2.00;1.45;;;22.30;33.00;;;;;;5032096;28;20029;-45
2020/12/09 01:17:50;;;;;;;1.52;1.30;;;22.30;33.00;;;;;;5031651;28;20021;-44
2020/12/09 01:20:15;;;;;;;2.13;1.63;;;22.30;33.00;;;;;;5033536;28;20018;-45
2020/12/09 01:22:41;;;;;;;1.88;1.50;;;22.30;33.00;;;;;;5036492;28;20071;-45
2020/12/09 01:25:07;;;;;;;2.58;1.95;;;22.20;33.00;;;;;;5035631;28;20050;-46
2020/12/09 01:27:33;;;;;;;2.92;1.58;;;22.20;32.90;;;;;;5036224;28;20029;-48
2020/12/09 01:29:59;;;;;;;1.80;1.65;;;22.20;32.90;;;;;;5035471;28;20064;-46
2020/12/09 01:32:24;;;;;;;2.30;1.73;;;22.20;33.00;;;;;;5035151;28;20112;-48
2020/12/09 01:34:50;;;;;;;2.40;2.10;;;22.20;33.00;;;;;;5035131;28;20135;-46
2020/12/09 01:37:16;;;;;;;1.77;1.65;;;22.20;33.00;;;;;;5035250;28;20364;-49
2020/12/09 01:39:42;;;;;;;1.92;1.52;;;22.20;33.00;;;;;;5035376;28;20025;-48
2020/12/09 01:42:08;;;;;;;2.15;1.60;;;22.20;33.10;;;;;;5035473;28;20041;-48
2020/12/09 01:44:34;;;;;;;2.47;1.90;;;22.20;33.70;;;;;;5035254;28;20329;-50
2020/12/09 01:47:06;;;;;;;1.95;1.63;;;22.20;33.00;;;;;;5035544;28;20130;-47
2020/12/09 01:49:34;;;;;;;1.95;1.60;;;22.20;33.00;;;;;;5008055;28;20041;-47
2020/12/09 01:52:02;;;;;;;1.95;1.52;;;22.10;33.00;;;;;;5033836;28;20042;-50
2020/12/09 01:54:28;;;;;;;1.75;1.40;;;22.10;32.90;;;;;;5034412;28;20091;-45
2020/12/09 01:57:12;;;;;;;2.67;1.73;;;22.10;32.90;;;;;;5034729;28;20025;-46
2020/12/09 01:59:39;;;;;;;2.15;1.42;;;22.10;33.40;;;;;;5034524;28;20084;-48
2020/12/09 02:02:06;;;;;;;2.10;1.65;;;22.10;32.70;;;;;;5039340;28;20033;-49
2020/12/09 02:04:36;;;;;;;2.40;1.70;;;22.10;32.80;;;;;;5035598;28;20345;-46
2020/12/09 02:07:02;;;;;;;2.50;1.60;;;22.10;32.80;;;;;;5035133;28;20033;-46
2020/12/09 02:09:29;;;;;;;1.70;1.40;;;22.10;32.90;;;;;;5011089;28;20033;-47
2020/12/09 02:11:55;;;;;;;3.42;1.67;;;22.10;32.90;;;;;;5035132;28;20116;-48
2020/12/09 02:14:22;;;;;;;1.88;1.40;;;22.10;32.80;;;;;;5034552;28;20025;-46
2020/12/09 02:16:52;;;;;;;1.70;1.48;;;22.10;32.80;;;;;;5035232;28;20033;-46
2020/12/09 02:19:19;;;;;;;2.05;1.85;;;22.10;32.80;;;;;;5033460;28;20095;-45
2020/12/09 02:21:45;;;;;;;2.22;1.70;;;22.00;32.70;;;;;;5034848;28;20033;-49
2020/12/09 02:24:10;;;;;;;3.05;1.48;;;22.00;32.70;;;;;;5034768;28;20026;-48
2020/12/09 02:26:44;;;;;;;2.20;1.60;;;22.00;32.70;;;;;;5034755;28;20045;-48
2020/12/09 02:29:11;;;;;;;2.00;1.33;;;22.10;32.80;;;;;;5034578;28;20360;-44
2020/12/09 02:31:38;;;;;;;2.50;1.67;;;22.00;32.70;;;;;;5033193;28;20030;-48
2020/12/09 02:34:04;;;;;;;2.53;1.50;;;22.00;32.70;;;;;;5035204;28;20030;-48
2020/12/09 02:36:30;;;;;;;1.80;1.63;;;22.00;32.70;;;;;;5034373;28;20025;-44
2020/12/09 02:38:56;;;;;;;2.03;1.48;;;22.00;32.70;;;;;;5031906;28;20417;-45
2020/12/09 02:41:22;;;;;;;1.83;1.67;;;22.00;32.70;;;;;;5016754;28;20033;-45
2020/12/09 02:43:48;;;;;;;1.83;1.52;;;22.00;32.70;;;;;;5034451;28;20492;-48
2020/12/09 02:46:14;;;;;;;2.00;1.63;;;22.00;32.70;;;;;;5034707;28;20360;-50
2020/12/09 02:48:40;;;;;;;2.30;1.33;;;21.90;32.60;;;;;;5034122;28;20030;-46
2020/12/09 02:51:07;;;;;;;1.92;1.60;;;21.90;32.60;;;;;;5034507;28;20025;-46
2020/12/09 02:53:32;;;;;;;1.77;1.35;;;21.90;32.60;;;;;;5034165;28;20021;-48
2020/12/09 02:55:58;;;;;;;2.10;1.60;;;21.90;32.60;;;;;;5033793;28;20030;-45
2020/12/09 02:58:25;;;;;;;1.98;1.63;;;21.90;32.70;;;;;;5033906;28;20032;-46
2020/12/09 03:00:52;;;;;;;1.80;1.38;;;21.90;32.70;;;;;;5032945;28;20045;-46
2020/12/09 03:03:18;;;;;;;1.67;1.23;;;21.90;32.70;;;;;;5033952;28;20052;-44
2020/12/09 03:05:44;;;;;;;1.67;1.40;;;21.90;32.60;;;;;;5016505;28;20068;-47
2020/12/09 03:08:10;;;;;;;1.95;1.63;;;21.90;32.60;;;;;;5035770;28;20119;-48
2020/12/09 03:10:35;;;;;;;1.90;1.58;;;21.80;32.50;;;;;;5034829;28;20030;-46
2020/12/09 03:13:01;;;;;;;2.25;1.70;;;21.90;32.60;;;;;;5034228;28;20171;-44
2020/12/09 03:15:27;;;;;;;2.10;1.60;;;21.80;32.60;;;;;;5033801;28;20048;-48
2020/12/09 03:17:53;;;;;;;2.28;1.40;;;21.80;32.60;;;;;;5033751;28;20033;-48
2020/12/09 03:20:19;;;;;;;2.08;1.70;;;21.80;32.60;;;;;;5033985;28;20092;-44
2020/12/09 03:22:44;;;;;;;2.47;1.50;;;21.90;32.60;;;;;;5015792;28;20460;-44
2020/12/09 03:25:10;;;;;;;2.03;1.55;;;21.80;32.60;;;;;;5015844;28;20048;-48
2020/12/09 03:27:36;;;;;;;2.25;1.52;;;21.80;33.20;;;;;;5033961;28;20033;-45
2020/12/09 03:30:03;;;;;;;1.92;1.48;;;21.80;32.60;;;;;;5015855;28;20073;-49
2020/12/09 03:32:29;;;;;;;1.83;1.63;;;21.80;32.60;;;;;;5033480;28;20037;-46
2020/12/09 03:34:54;;;;;;;1.90;1.60;;;21.80;32.60;;;;;;5033730;28;20099;-50
2020/12/09 03:37:20;;;;;;;2.35;1.52;;;21.80;32.60;;;;;;5032637;28;20029;-46
2020/12/09 03:39:46;;;;;;;2.42;1.83;;;21.80;32.60;;;;;;5032787;28;20029;-48
2020/12/09 03:42:12;;;;;;;2.42;1.83;;;21.80;32.60;;;;;;5033004;28;20679;-49
2020/12/09 03:44:37;;;;;;;1.60;1.48;;;21.80;32.60;;;;;;5033028;28;20479;-47
2020/12/09 03:47:05;;;;;;;2.42;1.63;;;21.70;32.50;;;;;;5034625;28;20361;-46
2020/12/09 03:49:31;;;;;;;1.65;1.50;;;21.80;32.60;;;;;;5033618;28;20030;-47
2020/12/09 03:51:56;;;;;;;1.88;1.63;;;21.80;32.60;;;;;;5031729;28;20365;-46
2020/12/09 03:54:24;;;;;;;2.00;1.80;;;21.80;32.60;;;;;;5015548;28;20036;-46
2020/12/09 03:56:50;;;;;;;2.03;1.70;;;21.80;32.60;;;;;;5033195;28;20041;-44
2020/12/09 03:59:16;;;;;;;2.33;1.85;;;21.70;32.50;;;;;;5032528;28;20345;-49
2020/12/09 04:01:41;;;;;;;2.50;1.80;;;21.70;32.50;;;;;;5032392;28;20040;-46
2020/12/09 04:04:07;;;;;;;1.85;1.73;;;21.70;32.60;;;;;;5033621;28;20037;-51
2020/12/09 04:06:33;;;;;;;2.65;2.05;;;21.70;32.70;;;;;;5032767;28;20052;-46
2020/12/09 04:08:59;;;;;;;2.58;1.92;;;21.70;32.70;;;;;;5032809;28;20087;-48
2020/12/09 04:11:25;;;;;;;2.42;2.20;;;21.70;32.70;;;;;;5032356;28;20450;-47
2020/12/09 04:13:50;;;;;;;2.88;2.30;;;21.70;32.80;;;;;;5023308;28;20030;-46
2020/12/09 04:16:16;;;;;;;3.50;2.05;;;21.70;32.80;;;;;;5032033;28;20040;-45
2020/12/09 04:18:42;;;;;;;2.90;2.30;;;21.70;32.80;;;;;;5033208;28;20151;-47
2020/12/09 04:21:08;;;;;;;2.72;2.40;;;21.70;32.80;;;;;;5033267;28;20380;-48
2020/12/09 04:23:33;;;;;;;5.18;2.30;;;21.60;32.80;;;;;;5032858;28;20034;-45
2020/12/09 04:25:59;;;;;;;2.63;2.42;;;21.60;32.80;;;;;;5032085;28;20064;-43
2020/12/09 04:28:25;;;;;;;2.70;2.30;;;21.60;32.90;;;;;;5032577;28;20057;-47
2020/12/09 04:30:50;;;;;;;3.40;2.47;;;21.60;32.90;;;;;;5028668;28;20052;-48
2020/12/09 04:33:16;;;;;;;2.83;2.50;;;21.60;32.90;;;;;;5015157;28;20098;-47
2020/12/09 04:35:42;;;;;;;3.50;2.80;;;21.60;32.90;;;;;;5032771;28;20080;-46
2020/12/09 04:38:11;;;;;;;3.28;2.72;;;21.60;33.00;;;;;;5031643;28;20034;-45
2020/12/09 04:40:36;;;;;;;3.15;2.85;;;21.60;33.00;;;;;;5032009;28;20036;-45
2020/12/09 04:43:03;;;;;;;3.15;2.80;;;21.60;33.00;;;;;;5032380;28;20025;-50
2020/12/09 04:45:31;;;;;;;3.33;2.35;;;21.60;33.00;;;;;;5032526;28;20049;-47
2020/12/09 04:48:14;;;;;;;5.32;3.05;;;21.60;33.10;;;;;;5032532;28;20033;-47
2020/12/09 04:51:07;;;;;;;3.50;2.92;;;21.60;33.00;;;;;;5032629;28;20690;-49
2020/12/09 04:53:33;;;;;;;3.10;2.80;;;21.60;33.10;;;;;;5031254;28;20029;-45
2020/12/09 04:55:59;;;;;;;3.55;3.10;;;21.60;33.10;;;;;;5034659;28;20364;-46
2020/12/09 04:58:38;;;;;;;3.58;2.90;;;21.50;33.10;;;;;;5036048;28;20030;-45
2020/12/09 05:01:07;;;;;;;2.67;2.47;;;21.50;33.20;;;;;;5036432;28;20033;-45
2020/12/09 05:03:42;;;;;;;3.60;3.20;;;21.50;33.20;;;;;;5035508;28;20095;-46
2020/12/09 05:06:09;;;;;;;3.13;2.83;;;21.50;33.30;;;;;;5035889;28;20041;-47
2020/12/09 05:08:36;;;;;;;3.53;2.90;;;21.50;33.30;;;;;;5036965;28;20343;-47
2020/12/09 05:11:06;;;;;;;3.67;3.22;;;21.50;33.30;;;;;;5038534;28;20037;-46
2020/12/09 05:13:35;;;;;;;3.95;3.53;;;21.50;33.30;;;;;;5035998;28;20400;-47
2020/12/09 05:16:02;;;;;;;3.90;3.10;;;21.50;33.30;;;;;;5035730;28;20124;-44
2020/12/09 05:18:42;;;;;;;4.55;3.60;;;21.50;33.20;;;;;;5032897;28;20037;-44
2020/12/09 05:21:11;;;;;;;4.07;3.50;;;21.50;33.20;;;;;;5034114;28;20120;-48
2020/12/09 05:23:43;;;;;;;4.10;3.70;;;21.50;33.20;;;;;;5036103;28;20041;-48
2020/12/09 05:26:10;;;;;;;3.70;3.40;;;21.50;33.20;;;;;;5034622;28;20136;-44
2020/12/09 05:28:36;;;;;;;4.10;3.35;;;21.50;33.20;;;;;;5033368;28;20530;-48
2020/12/09 05:31:01;;;;;;;4.35;3.70;;;21.50;33.20;;;;;;5033867;28;20029;-45
2020/12/09 05:33:32;;;;;;;4.50;4.03;;;21.40;33.20;;;;;;5034964;28;20037;-47
2020/12/09 05:36:01;;;;;;;4.50;3.60;;;21.40;33.20;;;;;;5033635;28;20099;-45
2020/12/09 05:38:28;;;;;;;5.25;3.97;;;21.40;33.20;;;;;;5035084;28;20297;-46
2020/12/09 05:40:55;;;;;;;4.40;4.00;;;21.40;33.20;;;;;;5035744;28;20678;-44
2020/12/09 05:43:22;;;;;;;4.05;3.65;;;21.40;33.20;;;;;;5035445;28;20452;-49
2020/12/09 05:45:48;;;;;;;4.85;4.10;;;21.40;33.20;;;;;;5035438;28;20052;-47
2020/12/09 05:48:18;;;;;;;4.43;3.75;;;21.40;33.20;;;;;;5035127;28;20424;-49
2020/12/09 05:50:45;;;;;;;4.15;3.75;;;21.40;33.20;;;;;;5035267;28;20029;-46
2020/12/09 05:53:15;;;;;;;4.20;3.80;;;21.40;33.20;;;;;;5033998;28;20179;-49
2020/12/09 05:55:42;;;;;;;4.50;4.07;;;21.40;33.20;;;;;;5031146;28;20083;-46
2020/12/09 05:58:27;;;;;;;4.20;3.80;;;21.40;33.20;;;;;;5033383;28;20166;-46
2020/12/09 06:01:14;;;;;;;4.55;4.00;;;21.40;33.20;;;;;;5035215;28;20034;-45
2020/12/09 06:03:44;;;;;;;4.75;3.92;;;21.40;33.10;;;;;;5033640;28;20025;-50
2020/12/09 06:06:24;;;;;;;4.18;3.78;;;21.40;33.20;;;;;;5034651;28;20123;-49
2020/12/09 06:08:55;;;;;;;4.05;3.65;;;21.40;33.30;;;;;;5034986;28;20045;-47
2020/12/09 06:11:23;;;;;;;4.10;3.70;;;21.40;33.30;;;;;;5032982;28;20731;-47
2020/12/09 06:13:50;;;;;;;4.38;3.97;;;21.30;33.30;;;;;;5034894;28;20033;-46
2020/12/09 06:16:20;;;;;;;4.38;3.70;;;21.40;33.40;;;;;;5035110;28;20033;-48
2020/12/09 06:18:48;;;;;;;5.18;4.15;;;21.30;33.30;;;;;;5034029;28;20033;-50
2020/12/09 06:21:14;;;;;;;4.20;3.80;;;21.40;33.20;;;;;;5035377;28;20535;-45
2020/12/09 06:23:40;;;;;;;4.60;4.07;;;21.30;33.20;;;;;;5034966;28;20033;-45
2020/12/09 06:26:07;;;;;;;4.43;3.90;;;21.30;33.20;;;;;;5035077;28;20041;-48
2020/12/09 06:28:39;;;;;;;4.95;4.20;;;21.30;33.30;;;;;;5034183;28;20045;-47
2020/12/09 06:31:10;;;;;;;4.90;4.32;;;21.30;33.20;;;;;;5034723;28;20113;-49
2020/12/09 06:33:43;;;;;;;5.10;4.57;;;21.30;33.20;;;;;;5034858;28;20033;-48
2020/12/09 06:36:28;;;;;;;4.88;4.38;;;21.30;33.20;;;;;;5033493;28;20124;-49
2020/12/09 06:39:06;;;;;;;4.88;4.15;;;21.30;33.30;;;;;;5032629;28;20029;-45
2020/12/09 06:41:35;;;;;;;5.43;4.45;;;21.30;33.30;;;;;;5035854;28;20099;-50
2020/12/09 06:44:09;;;;;;;4.93;4.43;;;21.30;33.30;;;;;;5034585;28;20025;-45
2020/12/09 06:46:39;;;;;;;4.97;4.47;;;21.30;33.30;;;;;;5032960;28;20532;-47
2020/12/09 06:49:25;;;;;;;4.78;4.28;;;21.30;33.30;;;;;;5034154;28;20364;-47
2020/12/09 06:51:50;;;;;;;4.90;4.40;;;21.30;33.30;;;;;;5032267;28;20083;-51
2020/12/09 06:54:16;;;;;;;6.18;4.50;;;21.30;33.30;;;;;;5034101;28;20353;-49
2020/12/09 06:56:43;;;;;;;5.32;4.82;;;21.20;33.20;;;;;;5034417;28;20029;-45
2020/12/09 06:59:26;;;;;;;5.20;4.63;;;21.30;33.30;;;;;;5033999;28;20041;-46
2020/12/09 07:02:05;;;;;;;5.32;4.78;;;21.30;33.30;;;;;;5029895;28;20033;-49
2020/12/09 07:04:55;;;;;;;5.43;4.93;;;21.20;33.30;;;;;;5033644;28;20535;-47
2020/12/09 07:07:35;;;;;;;5.93;5.32;;;21.30;33.30;;;;;;5015172;28;20435;-46
2020/12/09 07:10:22;;;;;;;6.80;5.35;;;21.30;33.30;;;;;;5015915;28;20038;-46
2020/12/09 07:12:58;;;;;;;6.53;5.82;;;21.20;33.20;;;;;;5034165;28;20048;-47
2020/12/09 07:15:24;;;;;;;6.90;6.20;;;21.20;33.20;;;;;;5033681;28;20021;-47
2020/12/09 07:17:51;;;;;;;7.25;6.53;;;21.20;33.20;;;;;;5015094;28;20456;-47
2020/12/09 07:20:17;;;;;;;8.30;6.57;;;21.20;33.20;;;;;;5033780;28;20120;-47
2020/12/09 07:22:43;;;;;;;9.23;7.07;;;21.20;33.10;;;;;;5033961;28;20100;-47
2020/12/09 07:25:09;;;;;;;7.68;6.85;;;21.20;33.10;;;;;;5033258;28;20135;-47
2020/12/09 07:27:35;;;;;;;7.85;7.05;;;21.20;33.00;;;;;;5033633;28;20052;-44
2020/12/09 07:30:08;;;;;;;9.15;7.68;;;21.20;33.00;;;;;;5032417;28;20135;-46
2020/12/09 07:32:35;;;;;;;8.77;7.50;;;21.20;32.90;;;;;;5030947;28;20039;-46
2020/12/09 07:35:06;;;;;;;8.60;7.30;;;21.20;32.90;;;;;;5033577;28;20056;-45
2020/12/09 07:37:41;;;;;;;9.02;8.00;;;21.20;32.90;;;;;;5032927;28;20053;-46
2020/12/09 07:40:20;;;;;;;8.73;7.65;;;21.20;32.90;;;;;;5032944;28;20083;-45
2020/12/09 07:42:46;;;;;;;9.80;8.32;;;21.10;32.90;;;;;;5031613;28;20329;-46
2020/12/09 07:45:16;;;;;;;8.88;7.78;;;21.10;32.90;;;;;;5032386;28;20045;-46
2020/12/09 07:47:43;;;;;;;10.35;8.32;;;21.20;33.00;;;;;;5035185;28;20033;-48
2020/12/09 07:50:11;;;;;;;10.27;8.32;;;21.10;32.90;;;;;;5034912;28;20113;-47
2020/12/09 07:52:39;;;;;;;9.05;7.85;;;21.10;32.90;;;;;;5033762;28;20017;-46
2020/12/09 07:55:13;;;;;;;9.77;7.75;;;21.10;32.90;;;;;;5033771;28;20107;-54
2020/12/09 07:57:40;;;;;;;11.20;8.73;;;21.10;32.90;;;;;;5033000;28;20061;-44
2020/12/09 08:00:13;;;;;;;8.75;7.63;;;21.10;33.00;;;;;;5029159;28;20357;-53
2020/12/09 08:02:41;;;;;;;9.13;6.73;;;21.10;33.30;;;;;;5034695;28;20356;-54
2020/12/09 08:05:27;;;;;;;8.00;6.82;;;21.10;33.80;;;;;;5031164;28;20045;-49
2020/12/09 08:07:56;;;;;;;8.52;6.78;;;21.20;34.10;;;;;;5032046;28;20060;-53
2020/12/09 08:10:35;;;;;;;9.27;6.85;;;21.20;34.30;;;;;;5031530;28;20068;-48
2020/12/09 08:13:12;;;;;;;9.65;7.18;;;21.30;34.50;;;;;;5028349;28;20037;-52
2020/12/09 08:15:40;;;;;;;7.43;6.55;;;21.30;34.50;;;;;;5031478;28;20384;-50
2020/12/09 08:18:07;;;;;;;10.48;7.70;;;21.40;34.60;;;;;;5031904;28;20087;-49
2020/12/09 08:20:51;;;;;;;10.35;7.50;;;21.40;34.50;;;;;;5032484;28;20105;-50
2020/12/09 08:23:18;;;;;;;10.38;7.65;;;21.60;34.50;;;;;;5031929;28;20467;-47
2020/12/09 08:25:53;;;;;;;10.38;7.70;;;21.70;34.40;;;;;;5032242;28;20034;-53
2020/12/09 08:28:24;;;;;;;9.75;7.13;;;21.70;34.30;;;;;;5031723;28;20128;-52
2020/12/09 08:30:51;;;;;;;11.35;7.28;;;21.90;34.30;;;;;;5031864;28;20048;-49
2020/12/09 08:33:23;;;;;;;9.38;7.50;;;22.00;34.20;;;;;;5032546;28;20380;-52
2020/12/09 08:35:58;;;;;;;9.75;7.40;;;22.10;34.10;;;;;;5032114;28;20168;-48
2020/12/09 08:38:25;;;;;;;9.57;7.18;;;22.20;34.00;;;;;;5032269;28;20044;-50
2020/12/09 08:40:54;;;;;;;10.88;7.78;;;22.20;33.80;;;;;;5032094;28;20468;-49
2020/12/09 08:43:25;;;;;;;10.23;6.95;;;22.30;33.80;;;;;;5030269;28;20033;-52
2020/12/09 08:45:52;;;;;;;11.15;7.90;;;22.40;33.70;;;;;;5013959;28;20038;-53
2020/12/09 08:48:21;;;;;;;12.40;7.97;;;22.50;33.60;;;;;;5031979;28;20025;-48
2020/12/09 08:50:49;;;;;;;8.30;7.05;;;22.60;33.50;;;;;;5014504;28;20497;-50
2020/12/09 08:53:15;;;;;;;9.40;7.97;;;22.70;33.40;;;;;;5031531;28;20030;-55
2020/12/09 08:55:42;;;;;;;9.75;8.15;;;22.80;33.50;;;;;;5007794;28;20567;-52
2020/12/09 08:58:09;;;;;;;11.27;8.48;;;22.80;33.10;;;;;;5032087;28;20037;-57
2020/12/09 09:00:37;;;;;;;10.63;8.00;;;22.90;32.90;;;;;;5030369;28;20041;-50
2020/12/09 09:03:04;;;;;;;9.60;8.18;;;23.00;32.80;;;;;;5028929;28;20025;-48
2020/12/09 09:05:30;;;;;;;9.35;7.75;;;23.10;32.60;;;;;;5031582;28;20495;-49
2020/12/09 09:07:55;;;;;;;9.70;7.75;;;23.20;32.50;;;;;;5032584;28;20034;-48
2020/12/09 09:10:21;;;;;;;9.63;7.13;;;23.20;32.30;;;;;;5027177;28;20064;-50
2020/12/09 09:12:47;;;;;;;8.15;6.93;;;23.30;32.30;;;;;;5033465;28;20040;-48
2020/12/09 09:15:13;;;;;;;7.85;6.85;;;23.30;32.10;;;;;;5034112;28;20578;-52
2020/12/09 09:17:39;;;;;;;8.75;6.43;;;23.40;32.00;;;;;;5032089;28;20025;-52
2020/12/09 09:20:05;;;;;;;8.57;6.82;;;23.40;31.90;;;;;;5031648;28;20037;-49
2020/12/09 09:22:31;;;;;;;8.70;6.32;;;23.40;31.80;;;;;;5032429;28;20021;-47
2020/12/09 09:24:57;;;;;;;9.32;7.13;;;23.40;31.60;;;;;;5031041;28;20120;-49
2020/12/09 09:27:23;;;;;;;9.52;7.20;;;23.50;31.50;;;;;;5030830;28;20112;-49
2020/12/09 09:29:50;;;;;;;6.68;5.97;;;23.50;31.40;;;;;;5031842;28;20056;-49
2020/12/09 09:32:17;;;;;;;7.97;6.65;;;23.60;31.30;;;;;;5032492;28;20033;-49
2020/12/09 09:34:43;;;;;;;7.05;6.20;;;23.60;31.20;;;;;;5030282;28;20444;-51
2020/12/09 09:37:09;;;;;;;7.97;7.07;;;23.60;31.10;;;;;;5032412;28;20033;-53
2020/12/09 09:39:36;;;;;;;7.80;6.90;;;23.60;31.00;;;;;;5029011;28;20535;-50
2020/12/09 09:42:03;;;;;;;7.47;6.53;;;23.60;31.00;;;;;;5032636;28;20026;-49
2020/12/09 09:44:29;;;;;;;7.28;6.30;;;23.60;30.90;;;;;;5035627;28;20025;-51
2020/12/09 09:46:59;;;;;;;7.72;6.43;;;23.60;30.80;;;;;;5033861;28;20037;-52
2020/12/09 09:49:25;;;;;;;7.10;6.07;;;23.60;30.60;;;;;;5035862;28;20029;-51
2020/12/09 09:51:54;;;;;;;7.78;6.75;;;23.60;30.60;;;;;;5035620;28;20052;-49
2020/12/09 09:54:20;;;;;;;8.23;6.32;;;23.60;30.50;;;;;;5036001;28;20099;-47
2020/12/09 09:56:46;;;;;;;6.90;5.82;;;23.70;30.50;;;;;;5035232;28;20036;-48
2020/12/09 09:59:12;;;;;;;7.40;5.80;;;23.70;30.30;;;;;;5035344;28;20033;-49
2020/12/09 10:01:38;;;;;;;6.57;5.85;;;23.70;30.30;;;;;;5032936;28;20034;-47
2020/12/09 10:04:06;;;;;;;6.68;5.97;;;23.70;30.30;;;;;;5035411;28;20041;-47
2020/12/09 10:06:33;;;;;;;7.20;6.43;;;23.70;30.20;;;;;;5035357;28;20060;-49
2020/12/09 10:08:59;;;;;;;6.90;5.57;;;23.70;30.10;;;;;;5035085;28;20048;-52
2020/12/09 10:11:25;;;;;;;6.93;5.93;;;23.70;30.10;;;;;;5034065;28;20033;-49
2020/12/09 10:13:52;;;;;;;6.38;5.70;;;23.70;30.10;;;;;;5031539;28;20087;-51
2020/12/09 10:16:27;;;;;;;5.80;5.18;;;23.70;30.00;;;;;;5034660;28;20298;-51
2020/12/09 10:18:53;;;;;;;7.72;5.85;;;23.70;30.00;;;;;;5033681;28;20052;-50
2020/12/09 10:21:24;;;;;;;7.20;6.15;;;23.70;30.00;;;;;;5034991;28;20112;-49
2020/12/09 10:23:50;;;;;;;9.30;6.43;;;23.60;30.00;;;;;;5034350;28;20079;-47
2020/12/09 10:26:16;;;;;;;7.82;5.80;;;23.60;30.00;;;;;;5016832;28;20037;-49
2020/12/09 10:28:44;;;;;;;6.13;5.32;;;23.60;30.00;;;;;;5036432;28;20056;-49
2020/12/09 10:31:09;;;;;;;7.32;6.03;;;23.60;30.00;;;;;;5032580;28;20117;-48
2020/12/09 10:33:35;;;;;;;7.50;5.35;;;23.60;30.00;;;;;;5031281;28;20108;-53
2020/12/09 10:36:01;;;;;;;6.85;5.70;;;23.60;30.00;;;;;;5016359;28;20083;-51
2020/12/09 10:38:27;;;;;;;5.65;5.03;;;23.60;30.00;;;;;;5034320;28;20390;-52
2020/12/09 10:40:53;;;;;;;6.05;5.35;;;23.60;30.00;;;;;;5034659;28;20116;-51
2020/12/09 10:43:18;;;;;;;7.20;5.50;;;23.60;29.90;;;;;;5034575;28;20379;-49
2020/12/09 10:45:44;;;;;;;7.00;5.40;;;23.60;29.90;;;;;;5034415;28;20468;-48
2020/12/09 10:48:10;;;;;;;6.05;5.13;;;23.60;29.90;;;;;;5034152;28;20496;-52
2020/12/09 10:50:38;;;;;;;5.90;5.30;;;23.60;29.90;;;;;;5015740;28;20029;-47
2020/12/09 10:53:04;;;;;;;6.55;5.32;;;23.60;29.90;;;;;;5031786;28;20083;-47
2020/12/09 10:55:31;;;;;;;5.68;4.95;;;23.60;29.80;;;;;;5034692;28;20025;-46
2020/12/09 10:57:57;;;;;;;6.30;5.10;;;23.60;29.80;;;;;;5034576;28;20029;-49
2020/12/09 11:00:23;;;;;;;4.97;4.47;;;23.60;29.80;;;;;;5033017;28;20036;-49
2020/12/09 11:02:49;;;;;;;6.65;5.35;;;23.60;29.80;;;;;;5034451;28;20360;-50
2020/12/09 11:05:14;;;;;;;5.65;5.13;;;23.60;29.80;;;;;;5031673;28;20072;-48
2020/12/09 11:07:40;;;;;;;6.25;4.90;;;23.60;29.80;;;;;;5034228;28;20033;-52
2020/12/09 11:10:06;;;;;;;6.50;5.03;;;23.60;29.80;;;;;;5032323;28;20030;-52
2020/12/09 11:12:32;;;;;;;6.50;4.80;;;23.60;29.70;;;;;;5033947;28;20025;-46
2020/12/09 11:14:58;;;;;;;7.43;5.57;;;23.60;29.80;;;;;;5033454;28;20155;-47
2020/12/09 11:17:24;;;;;;;6.63;5.55;;;23.60;29.80;;;;;;5034262;28;20067;-47
2020/12/09 11:19:50;;;;;;;6.65;5.68;;;23.60;29.90;;;;;;5016318;28;20420;-49
2020/12/09 11:22:16;;;;;;;7.25;6.10;;;23.60;29.90;;;;;;5033685;28;20030;-53
2020/12/09 11:24:42;;;;;;;7.20;5.97;;;23.60;29.90;;;;;;5031729;28;20347;-49
2020/12/09 11:27:08;;;;;;;9.15;6.15;;;23.60;29.90;;;;;;5029448;28;20033;-51
2020/12/09 11:29:34;;;;;;;8.15;6.30;;;23.60;29.90;;;;;;5032422;28;20041;-49
2020/12/09 11:32:00;;;;;;;6.90;6.18;;;23.60;29.90;;;;;;5032946;28;20100;-48
2020/12/09 11:34:26;;;;;;;7.20;5.75;;;23.60;29.90;;;;;;5032742;28;20017;-48
2020/12/09 11:36:59;;;;;;;8.05;6.53;;;23.60;29.90;;;;;;5033195;28;20029;-49
2020/12/09 11:39:26;;;;;;;7.47;6.25;;;23.60;29.90;;;;;;5033609;28;20095;-52
2020/12/09 11:41:52;;;;;;;7.50;6.45;;;23.60;29.90;;;;;;5032143;28;20025;-48
2020/12/09 11:44:18;;;;;;;6.93;5.90;;;23.60;29.90;;;;;;5015824;28;20083;-46
2020/12/09 11:46:44;;;;;;;7.28;6.30;;;23.50;29.90;;;;;;5032936;28;20041;-50
2020/12/09 11:49:10;;;;;;;7.50;6.32;;;23.50;29.90;;;;;;5016554;28;20384;-49
2020/12/09 11:51:35;;;;;;;7.97;6.35;;;23.50;29.90;;;;;;5036650;28;20337;-48
2020/12/09 11:54:01;;;;;;;7.95;6.85;;;23.50;29.90;;;;;;5033340;28;20025;-46
2020/12/09 11:56:27;;;;;;;8.35;6.82;;;23.50;29.90;;;;;;5030363;28;20033;-48
2020/12/09 11:58:53;;;;;;;9.50;7.25;;;23.50;29.90;;;;;;5032999;28;20025;-50
2020/12/09 12:01:20;;;;;;;8.07;6.97;;;23.50;29.90;;;;;;5034326;28;20444;-49
2020/12/09 12:03:47;;;;;;;8.73;7.22;;;23.50;29.90;;;;;;5032819;28;20444;-49
2020/12/09 12:06:28;;;;;;;10.93;7.68;;;23.50;30.00;;;;;;5033888;28;20044;-45
2020/12/09 12:08:54;;;;;;;7.65;6.55;;;23.40;30.00;;;;;;5031819;28;20025;-50
2020/12/09 12:11:22;;;;;;;7.95;7.15;;;23.50;30.00;;;;;;5030471;28;20017;-48
2020/12/09 12:13:48;;;;;;;8.35;7.40;;;23.40;30.00;;;;;;5032821;28;20039;-52
2020/12/09 12:16:21;;;;;;;9.52;7.57;;;23.50;30.00;;;;;;5033162;28;20025;-49
2020/12/09 12:18:47;;;;;;;9.35;7.78;;;23.50;30.10;;;;;;5033280;28;20113;-48
2020/12/09 12:21:15;;;;;;;10.30;8.35;;;23.50;30.10;;;;;;5034331;28;20040;-52
2020/12/09 12:23:41;;;;;;;9.25;7.65;;;23.40;30.00;;;;;;5028401;28;20048;-47
2020/12/09 12:26:07;;;;;;;8.90;8.00;;;23.40;30.40;;;;;;5030686;28;20044;-48
2020/12/09 12:28:34;;;;;;;10.63;8.52;;;23.40;30.50;;;;;;5031459;28;20060;-51
2020/12/09 12:31:00;;;;;;;9.07;7.97;;;23.50;30.70;;;;;;5032141;28;20353;-55
2020/12/09 12:33:26;;;;;;;10.75;8.63;;;23.40;30.60;;;;;;5031373;28;20090;-52
2020/12/09 12:35:52;;;;;;;9.48;8.32;;;23.40;30.70;;;;;;5032345;28;20029;-56
2020/12/09 12:38:18;;;;;;;10.05;8.77;;;23.40;30.60;;;;;;5030579;28;20028;-50
2020/12/09 12:40:43;;;;;;;9.30;8.07;;;23.50;30.60;;;;;;5032881;28;20425;-48
2020/12/09 12:43:09;;;;;;;10.10;8.48;;;23.40;30.60;;;;;;5033129;28;20029;-53
2020/12/09 12:45:35;;;;;;;10.88;8.82;;;23.50;30.60;;;;;;5033388;28;20457;-45
2020/12/09 12:48:01;;;;;;;11.35;9.80;;;23.50;30.60;;;;;;5038303;28;20368;-47
2020/12/09 12:50:26;;;;;;;10.05;8.93;;;23.50;30.60;;;;;;5015817;28;20029;-50